createdAt,value
2022-08-26T00:05:14.552Z,58.62
2022-08-26T00:11:34.560Z,58.55
2022-08-26T00:17:57.559Z,58.52
2022-08-26T00:24:17.557Z,58.99
2022-08-26T00:30:40.570Z,59.38
2022-08-26T00:37:00.556Z,59.05
2022-08-26T00:43:23.579Z,58.94
2022-08-26T00:49:43.559Z,58.97
2022-08-26T00:56:06.561Z,59.21
2022-08-26T01:02:26.603Z,59.35
2022-08-26T01:08:49.557Z,59.62
2022-08-26T01:15:09.570Z,60
2022-08-26T01:21:32.558Z,60.66
2022-08-26T01:27:52.581Z,62.1
2022-08-26T01:34:15.558Z,63.03
2022-08-26T01:40:35.575Z,64.99
2022-08-26T01:46:58.569Z,67.03
2022-08-26T01:53:18.555Z,67.05
2022-08-26T01:59:41.583Z,67.88
2022-08-26T02:06:01.553Z,68.18
2022-08-26T02:12:24.575Z,69.27
2022-08-26T02:18:44.553Z,68.78
2022-08-26T02:25:07.573Z,68.46
2022-08-26T02:31:27.619Z,69.44
2022-08-26T02:37:50.557Z,70.82
2022-08-26T02:44:10.573Z,72.03
2022-08-26T02:50:33.556Z,71.81
2022-08-26T02:56:53.588Z,72.15
2022-08-26T03:03:16.559Z,72.03
2022-08-26T03:09:36.575Z,73.17
2022-08-26T03:15:59.628Z,74.33
2022-08-26T03:22:19.559Z,74.81
2022-08-26T03:28:42.561Z,75.03
2022-08-26T03:35:02.552Z,74.93
2022-08-26T03:41:25.570Z,75.47
2022-08-26T03:47:45.559Z,75.98
2022-08-26T03:54:08.591Z,76.19
2022-08-26T04:00:28.580Z,75.74
2022-08-26T04:06:51.554Z,76.17
2022-08-26T04:22:58.497Z,76.44
2022-08-26T04:29:18.538Z,76.19
2022-08-26T04:35:43.142Z,76.05
2022-08-26T04:42:01.720Z,75.64
2022-08-26T04:48:24.557Z,76.16
2022-08-26T04:54:44.590Z,76.41
2022-08-26T05:01:07.567Z,76.49
2022-08-26T05:07:27.556Z,76
2022-08-26T05:13:50.603Z,75.96
2022-08-26T05:20:10.556Z,75.9
2022-08-26T05:26:33.573Z,75.74
2022-08-26T05:32:55.298Z,75.79
2022-08-26T05:39:16.562Z,75.54
2022-08-26T05:45:36.570Z,74.87
2022-08-26T05:51:59.563Z,75.16
2022-08-26T05:58:19.578Z,75.36
2022-08-26T06:04:42.565Z,75.07
2022-08-26T06:11:02.563Z,74.98
2022-08-26T06:17:25.567Z,74.6
2022-08-26T06:23:45.562Z,74.32
2022-08-26T06:30:08.575Z,74.11
2022-08-26T06:36:28.571Z,73.79
2022-08-26T06:42:51.572Z,73.5
2022-08-26T06:49:11.604Z,73.56
2022-08-26T06:55:34.559Z,73.56
2022-08-26T07:01:54.836Z,72.65
2022-08-26T07:08:17.569Z,72.16
2022-08-26T07:14:37.574Z,71.52
2022-08-26T07:21:00.572Z,71.39
2022-08-26T07:27:20.569Z,71.64
2022-08-26T07:33:43.582Z,71.6
2022-08-26T07:40:03.594Z,71.59
2022-08-26T07:46:27.383Z,71.27
2022-08-26T07:52:46.583Z,70.06
2022-08-26T07:59:13.890Z,70.04
2022-08-26T08:05:30.595Z,70.07
2022-08-26T08:11:52.565Z,69.96
2022-08-26T08:18:15.428Z,70.12
2022-08-26T08:24:35.622Z,70.78
2022-08-26T08:30:55.602Z,70.69
2022-08-26T08:37:18.625Z,69.94
2022-08-26T08:43:38.563Z,69.58
2022-08-26T08:50:01.563Z,69.79
2022-08-26T08:56:21.605Z,69.52
2022-08-26T09:02:44.588Z,69.3
2022-08-26T09:09:04.591Z,69.28
2022-08-26T09:15:30.385Z,69.09
2022-08-26T09:21:47.564Z,69.39
2022-08-26T09:28:10.584Z,69.42
2022-08-26T09:34:30.564Z,68.94
2022-08-26T09:40:56.085Z,68.26
2022-08-26T09:47:13.573Z,68.29
2022-08-26T09:53:36.571Z,69.25
2022-08-26T09:59:56.595Z,68.98
2022-08-26T10:16:24.531Z,68.17
2022-08-26T10:22:44.596Z,68.49
2022-08-26T10:29:07.568Z,68.34
2022-08-26T10:35:27.701Z,67.98
2022-08-26T10:41:50.762Z,68.3
2022-08-26T10:48:10.778Z,68.85
2022-08-26T10:54:33.564Z,68.69
2022-08-26T11:00:53.890Z,68.3
2022-08-26T11:07:16.571Z,67.93
2022-08-26T11:13:39.913Z,67.03
2022-08-26T11:20:01.358Z,66.11
2022-08-26T11:26:35.712Z,66.08
2022-08-26T11:32:42.576Z,66.56
2022-08-26T11:39:02.789Z,67.09
2022-08-26T11:45:25.605Z,66.03
2022-08-26T11:51:48.268Z,65.22
2022-08-26T11:58:08.648Z,63.88
2022-08-26T12:04:28.662Z,64.21
2022-08-26T12:10:51.746Z,64.4
2022-08-26T12:17:11.578Z,64.32
2022-08-26T12:23:34.642Z,63.76
2022-08-26T12:29:54.561Z,62.45
2022-08-26T12:36:17.625Z,62.36
2022-08-26T12:42:37.586Z,61.3
2022-08-26T12:49:00.566Z,60.81
2022-08-26T12:55:20.586Z,61.48
2022-08-26T13:01:43.841Z,60.94
2022-08-26T13:08:04.710Z,60.85
2022-08-26T13:14:27.579Z,62.37
2022-08-26T13:20:47.566Z,63.66
2022-08-26T13:27:10.586Z,63.95
2022-08-26T13:33:30.572Z,64.11
2022-08-26T13:39:53.587Z,63.29
2022-08-26T13:46:13.622Z,62.68
2022-08-26T13:52:36.566Z,62.22
2022-08-26T13:58:56.574Z,62.89
2022-08-26T14:05:19.825Z,62.85
2022-08-26T14:11:50.976Z,63.24
2022-08-26T14:18:02.632Z,63.1
2022-08-26T14:24:22.594Z,63.14
2022-08-26T14:30:45.717Z,62.73
2022-08-26T14:37:07.203Z,62.01
2022-08-26T14:43:28.583Z,62.48
2022-08-26T14:49:48.783Z,62.16
2022-08-26T14:56:14.926Z,62.47
2022-08-26T15:02:32.978Z,62.31
2022-08-26T15:08:54.561Z,62.37
2022-08-26T15:15:14.585Z,63.07
2022-08-26T15:21:37.570Z,63.99
2022-08-26T15:27:57.580Z,64.29
2022-08-26T15:34:20.613Z,64.42
2022-08-26T15:40:40.626Z,64.18
2022-08-26T16:05:00.003Z,64.22
2022-08-26T16:11:19.576Z,63.89
2022-08-26T16:17:42.601Z,63.35
2022-08-26T16:24:02.567Z,63.42
2022-08-26T16:30:25.793Z,63.31
2022-08-26T16:36:45.573Z,63.4
2022-08-26T16:43:08.560Z,62.95
2022-08-26T16:49:28.885Z,62.83
2022-08-26T16:55:51.635Z,63.31
2022-08-26T17:02:11.575Z,63.12
2022-08-26T17:08:34.588Z,63.08
2022-08-26T17:14:54.599Z,63.16
2022-08-26T17:21:17.566Z,63.17
2022-08-26T17:27:37.579Z,63.42
2022-08-26T17:34:00.611Z,63.33
2022-08-26T17:40:20.622Z,63.51
2022-08-26T17:46:43.670Z,63.69
2022-08-26T17:53:03.571Z,64
2022-08-26T17:59:27.938Z,63.99
2022-08-26T18:05:46.577Z,64.3
2022-08-26T18:12:09.582Z,64.24
2022-08-26T18:18:29.602Z,64.66
2022-08-26T18:24:55.485Z,65.02
2022-08-26T18:31:12.693Z,65.19
2022-08-26T18:37:35.559Z,65.14
2022-08-26T18:43:55.649Z,64.84
2022-08-26T18:50:18.555Z,64.81
2022-08-26T18:56:38.559Z,64.84
2022-08-26T19:03:01.760Z,64.5
2022-08-26T19:09:21.662Z,64.09
2022-08-26T19:15:44.713Z,64.31
2022-08-26T19:22:04.557Z,64.4
2022-08-26T19:28:27.818Z,64.67
2022-08-26T19:34:47.566Z,65.2
2022-08-26T19:41:10.887Z,65.24
2022-08-26T19:47:30.604Z,65.74
2022-08-26T19:53:53.650Z,65.83
2022-08-26T20:00:13.688Z,65.67
2022-08-26T20:06:36.612Z,65.5
2022-08-26T20:12:56.601Z,65.6
2022-08-26T20:19:19.571Z,65.74
2022-08-26T20:25:39.614Z,66.35
2022-08-26T20:32:02.857Z,66.35
2022-08-26T20:38:22.556Z,66.17
2022-08-26T20:44:51.363Z,66.26
2022-08-26T20:51:05.602Z,66.32
2022-08-26T20:57:28.587Z,66.46
2022-08-26T21:03:48.643Z,66.77
2022-08-26T21:19:23.484Z,67.54
2022-08-26T21:25:43.569Z,67.78
2022-08-26T21:32:06.645Z,67.67
2022-08-26T21:38:26.599Z,68.14
2022-08-26T21:44:52.682Z,68.43
2022-08-26T21:51:09.593Z,68.53
2022-08-26T21:57:32.566Z,68.5
2022-08-26T22:20:29.556Z,69.92
2022-08-26T22:26:49.582Z,69.81
2022-08-26T22:33:12.604Z,70.03
2022-08-26T22:39:32.632Z,70.38
2022-08-26T22:45:55.669Z,70.47
2022-08-26T22:52:15.616Z,70.76
2022-08-26T22:58:38.576Z,70.71
2022-08-26T23:04:58.608Z,70.78
2022-08-26T23:11:21.620Z,70.91
2022-08-26T23:17:41.583Z,71.64
2022-08-26T23:24:04.599Z,72.03
2022-08-26T23:30:24.592Z,71.88
2022-08-26T23:36:47.613Z,72.18
2022-08-26T23:43:07.559Z,72.31
2022-08-26T23:49:30.618Z,72.61
2022-08-26T23:55:50.555Z,73.11
